Strona główna
METAR-TAF:

METAR-TAF

Lotnisko :

Barbacena, Minas Gerais, Brazylia

Szerokość geograficzna: 21-15S, Długość geograficzna: 043-46W, wysokość: 1171 m

Aktualna obserwacja pogody

Raport powstał 4 godziny i 40 minut temu, godzina 14:00 UTC
Wiatr 5 kt od północ
Temperatura 19°C
Wilgotność 56%
Ciśnienie 1026 hPa
Widzialność 10 km lub więcej
Brak chmur poniżej 1500 m i brak chmur cumulonimbus

METAR: SBBQ 301400Z 35005KT CAVOK 19/10 Q1026

czas: 15:40 (18:40 UTC)


TAF: brakujący

Obserwacja i prognoza pogody dla ponad 4000 lotnisk (raport METAR i TAF).

Dostępne stacje oznaczono żółtymi i czerwonymi punktami na mapie.

Najedź kursorem aby zobaczyć nazwę stacji.

Kliknij aby zobaczyć obserwacje i prognozy pogody.

Aby zmienić mapę: kliknij na zielony przycisk z czarnym krzyżykiem, aby powiększyć; na zielony przycisk z myślnikiem, aby pomniejszyć; na zielone strzałki, aby przejść do map sąsiednich.


METAR-TAF: